Clark, South Dakota
Current Conditions -  °F | °C
As of 10:53 PM on Friday 24 Oct 2014 (Local Time) from KATY Reporting Station
Clear Clear  
Wind Chill: 55°   Ceiling: Unl
Heat Index: 55°   Visibility: 10mi
Dew Point: 41°   Wind: 5mph
Humidity: 59%   Direction: 320°NW
Pressure: 29.99"   Gusts: NA
Location:  44.88°N, 97.73°W
Report Text: KATY 250353Z AUTO 32004KT 10SM CLR 13/05 A2999 RMK AO2 SLP159 T01280050 $
Loading
Personal Weather Stations






























Interactive Weather Map
Tropical Storm Tracking
New forecast layout! Learn more

10-Day Weather Forecast

Advertisements
Track Severe Weather on mobile